Latest Weather Observations for Strahan

IDT60801

Issued at 8:05 am EST Thursday 2 October 2014 (issued every 30 minutes, with the page automatically refreshed every 10 minutes)

About weather observations | Map of weather stations | Latest weather observations for TAS | Other Formats
Station Details ID: 097072 Name: STRAHAN AERODROME Lat: -42.16 Lon: 145.29 Height: 21.0 m
Data from the previous 72 hours. | See also: Recent months at Strahan
Date/Time
EST
Temp
°C
App
Temp
°C
Dew
Point
Rel
Hum
%
Delta-T
°C
Wind Press
QNH
hPa
Press
MSL
hPa
Rain
since 9 am
mm
Dir
 
Spd
km/h
Gust
km/h
Spd
kts
Gust
kts
02/08:01am 8.6 2.1 6.7 88 0.9 WSW 30 46 16 25 1017.8 1017.8 1.8
02/08:00am 8.5 2.4 6.6 88 0.9 WSW 28 46 15 25 1017.8 1017.8 1.8
02/07:43am 8.6 3.4 7.2 91 0.7 WSW 24 32 13 17 1017.8 1017.8 1.8
02/07:30am 9.0 3.4 7.3 89 0.8 W 26 35 14 19 1017.5 1017.5 1.8
02/07:00am 8.3 3.3 6.6 89 0.8 W 22 32 12 17 1017.4 1017.4 1.8
02/06:38am 7.9 1.8 6.5 91 0.6 WSW 28 39 15 21 1017.4 1017.4 1.6
02/06:30am 8.2 3.7 7.1 93 0.5 WSW 20 39 11 21 1017.5 1017.5 1.6
02/06:26am 8.3 3.8 7.1 92 0.6 W 20 28 11 15 1017.3 1017.3 1.6
02/06:03am 8.1 3.2 7.0 93 0.5 W 22 33 12 18 1017.2 1017.2 1.6
02/06:00am 8.2 3.4 7.3 94 0.4 W 22 33 12 18 1017.2 1017.2 1.6
02/05:45am 8.3 2.3 7.2 93 0.5 W 28 43 15 23 1017.0 1017.0 1.6
02/05:30am 8.2 3.3 7.1 93 0.5 W 22 32 12 17 1016.8 1016.8 1.4
02/05:00am 8.0 3.7 7.1 94 0.4 W 19 26 10 14 1016.8 1016.8 1.4
02/04:51am 7.9 3.4 7.0 94 0.4 WSW 20 32 11 17 1016.8 1016.8 1.4
02/04:40am 8.1 1.8 7.2 94 0.4 W 30 43 16 23 1016.9 1016.9 1.4
02/04:33am 8.1 2.9 7.3 95 0.4 W 24 43 13 23 1016.8 1016.8 1.4
02/04:30am 8.4 3.7 7.8 96 0.3 W 22 33 12 18 1016.7 1016.7 1.2
02/04:13am 8.4 2.1 7.2 92 0.6 W 30 44 16 24 1016.7 1016.7 1.2
02/04:03am 8.8 2.8 6.9 88 0.9 W 28 46 15 25 1016.6 1016.6 1.2
02/04:00am 9.0 3.3 6.6 85 1.1 W 26 41 14 22 1016.6 1016.6 1.2
02/03:30am 8.8 2.7 6.6 86 1.0 W 28 39 15 21 1016.6 1016.6 1.2
02/03:09am 8.7 2.1 6.2 84 1.1 W 30 48 16 26 1016.7 1016.7 1.2
02/03:00am 8.8 2.1 5.5 80 1.5 W 30 39 16 21 1016.6 1016.6 1.2
02/02:30am 9.0 2.3 5.6 79 1.5 W 30 43 16 23 1016.6 1016.6 1.2
02/02:00am 8.8 2.2 6.2 84 1.2 WNW 30 44 16 24 1016.7 1016.7 1.2
02/01:30am 8.6 2.1 6.7 88 0.9 W 30 43 16 23 1017.0 1017.0 1.2
02/01:00am 8.9 3.0 7.4 90 0.7 W 28 37 15 20 1017.2 1017.2 1.2
02/12:30am 8.4 1.6 7.0 91 0.7 W 32 46 17 25 1017.3 1017.3 1.2
02/12:19am 8.5 3.0 7.7 95 0.4 WNW 26 44 14 24 1017.4 1017.4 1.2
02/12:00am 8.3 2.8 7.4 94 0.4 W 26 44 14 24 1017.6 1017.6 1.2
 
Date/Time
EST
Temp
°C
App
Temp
°C
Dew
Point
Rel
Hum
%
Delta-T
°C
Wind Press
QNH
hPa
Press
MSL
hPa
Rain
since 9 am
mm
Dir
 
Spd
km/h
Gust
km/h
Spd
kts
Gust
kts
01/11:58pm 8.7 4.0 7.8 94 0.4 W 22 43 12 23 1017.6 1017.6 1.0
01/11:32pm 8.1 1.7 6.9 92 0.6 W 30 48 16 26 1017.8 1017.8 1.0
01/11:30pm 8.2 1.2 7.0 92 0.6 W 33 48 18 26 1017.8 1017.8 1.0
01/11:20pm 8.5 2.6 7.6 94 0.4 WNW 28 46 15 25 1017.9 1017.9 1.0
01/11:15pm 8.5 3.8 7.7 95 0.4 WNW 22 32 12 17 1017.8 1017.8 1.0
01/11:10pm 8.3 2.4 7.4 94 0.4 WNW 28 46 15 25 1017.9 1017.9 1.0
01/11:00pm 8.2 1.3 7.3 94 0.4 W 33 46 18 25 1018.0 1018.0 1.0
01/10:52pm 8.3 2.3 7.1 92 0.6 W 28 48 15 26 1018.1 1018.1 0.8
01/10:30pm 8.7 3.2 7.5 92 0.6 W 26 35 14 19 1018.1 1018.1 0.8
01/10:11pm 8.8 3.8 7.9 94 0.4 WNW 24 41 13 22 1018.2 1018.2 0.8
01/10:00pm 8.8 3.4 8.0 95 0.4 WNW 26 39 14 21 1018.2 1018.2 0.8
01/09:52pm 8.9 2.6 7.5 91 0.7 WNW 30 44 16 24 1018.3 1018.3 0.8
01/09:30pm 8.9 3.4 7.4 90 0.7 WNW 26 37 14 20 1018.2 1018.2 0.6
01/09:00pm 8.9 3.5 7.8 93 0.5 WNW 26 32 14 17 1018.2 1018.2 0.6
01/08:42pm 8.6 3.5 7.8 95 0.4 WNW 24 39 13 21 1018.4 1018.4 0.6
01/08:30pm 8.4 2.2 7.8 96 0.3 W 30 44 16 24 1018.3 1018.3 0.6
01/08:15pm 8.9 2.3 7.7 92 0.6 NW 32 44 17 24 1018.4 1018.4 0.6
01/08:00pm 9.0 4.3 7.9 93 0.5 WNW 22 30 12 16 1018.4 1018.4 0.2
01/07:30pm 8.8 3.4 7.9 94 0.4 WNW 26 35 14 19 1018.4 1018.4 0.2
01/07:26pm 8.8 3.0 8.0 95 0.4 WNW 28 39 15 21 1018.4 1018.4 0.2
01/07:06pm 9.2 2.9 7.2 87 0.9 WNW 30 39 16 21 1018.4 1018.4 0.0
01/07:00pm 9.3 3.2 6.7 84 1.2 NW 28 39 15 21 1018.3 1018.3 0.0
01/06:30pm 8.9 3.2 6.9 87 0.9 WNW 26 43 14 23 1018.3 1018.3 0.0
01/06:00pm 9.0 2.7 5.9 81 1.4 WNW 28 41 15 22 1018.5 1018.5 0.0
01/05:30pm 9.3 2.9 5.1 75 1.9 WNW 28 37 15 20 1018.3 1018.3 0.0
01/05:00pm 9.2 3.8 4.4 72 2.1 WNW 22 33 12 18 1018.5 1018.5 0.0
01/04:30pm 9.3 3.4 4.1 70 2.3 W 24 33 13 18 1018.5 1018.5 0.0
01/04:00pm 9.9 3.2 3.4 64 2.8 W 28 35 15 19 1018.4 1018.4 0.0
01/03:30pm 9.8 3.4 3.3 64 2.8 W 26 35 14 19 1018.5 1018.5 0.0
01/03:00pm 10.4 4.1 3.7 63 2.9 W 26 37 14 20 1018.8 1018.8 0.0
01/02:30pm 10.1 3.2 2.7 60 3.2 W 28 37 15 20 1018.6 1018.6 0.0
01/02:00pm 11.0 4.1 2.3 55 3.7 W 28 41 15 22 1018.4 1018.4 0.0
01/01:30pm 9.6 2.8 3.1 64 2.8 W 28 37 15 20 1018.5 1018.5 0.0
01/01:00pm 10.9 3.7 3.2 59 3.4 W 30 43 16 23 1018.9 1018.9 0.0
01/12:30pm 10.5 3.7 3.1 60 3.2 WSW 28 41 15 22 1018.7 1018.7 0.0
01/12:00pm 11.9 5.6 3.9 58 3.6 W 26 33 14 18 1018.4 1018.4 0.0
01/11:30am 11.0 4.3 3.8 61 3.2 W 28 37 15 20 1018.4 1018.4 0.0
01/11:00am 10.7 3.8 2.3 56 3.6 W 28 41 15 22 1018.3 1018.3 0.0
01/10:30am 10.3 3.2 3.8 64 2.9 W 30 39 16 21 1018.2 1018.2 0.0
01/10:00am 10.1 3.1 1.7 56 3.5 W 28 39 15 21 1018.1 1018.1 0.0
01/09:30am 8.4 3.7 3.1 69 2.3 SSW 17 24 9 13 1018.0 1018.0 0.0
01/09:12am 7.7 0.1 4.1 78 1.6 SW 33 52 18 28 1017.9 1017.9 0.0
01/09:00am 8.0 0.5 3.5 73 1.9 WSW 32 43 17 23 1017.6 1017.6 21.8
01/08:30am 8.2 2.3 3.7 73 1.9 SW 24 35 13 19 1017.0 1017.0 21.8
01/08:00am 9.2 6.2 5.8 79 1.5 WSW 11 24 6 13 1016.7 1016.7 21.8
01/07:30am 8.7 1.1 2.7 66 2.5 W 32 44 17 24 1016.4 1016.4 21.6
01/07:14am 8.6 2.0 4.0 73 2.0 WSW 28 44 15 24 1015.9 1015.9 21.6
01/07:00am 8.1 3.9 3.9 75 1.8 SW 15 26 8 14 1015.7 1015.7 21.6
01/06:30am 8.0 3.4 3.8 75 1.8 WSW 17 24 9 13 1014.9 1015.0 21.6
01/06:00am 7.9 1.9 3.6 74 1.8 WSW 24 35 13 19 1014.3 1014.4 21.6
01/05:30am 8.0 1.7 3.5 73 1.9 SW 26 39 14 21 1013.5 1013.6 21.6
01/05:00am 8.0 1.4 4.0 76 1.7 SW 28 39 15 21 1012.6 1012.7 21.6
01/04:30am 8.0 1.4 4.4 78 1.6 SW 28 39 15 21 1012.1 1012.2 21.6
01/04:00am 6.9 1.0 3.7 80 1.4 SSW 24 35 13 19 1011.6 1011.7 21.6
01/03:30am 6.3 2.2 4.1 86 0.9 SW 15 20 8 11 1011.2 1011.3 21.6
01/03:02am 7.6 1.0 4.4 80 1.4 WSW 28 46 15 25 1010.7 1010.8 21.4
01/03:00am 7.5 1.7 4.5 81 1.3 SW 24 44 13 24 1010.6 1010.7 21.4
01/02:44am 6.7 0.4 3.9 82 1.2 SW 26 43 14 23 1010.3 1010.4 21.4
01/02:30am 6.3 -0.4 3.6 83 1.1 SW 28 44 15 24 1010.2 1010.3 21.4
01/02:29am 6.4 0.1 3.6 82 1.2 SW 26 44 14 24 1010.2 1010.3 21.4
01/02:00am 6.9 -0.7 2.6 74 1.8 SW 32 44 17 24 1009.7 1009.8 20.6
01/01:49am 7.0 0.5 4.5 84 1.1 WSW 28 46 15 25 1009.5 1009.6 20.6
01/01:36am 5.5 1.3 3.7 88 0.8 SW 15 20 8 11 1009.3 1009.4 20.6
01/01:30am 5.7 1.1 3.9 88 0.8 SW 17 20 9 11 1009.3 1009.4 20.6
01/01:20am 5.7 -2.8 3.0 83 1.1 SW 37 56 20 30 1009.4 1009.5 20.6
01/01:18am 6.1 -3.5 3.3 82 1.2 SW 43 56 23 30 1009.6 1009.7 20.6
01/01:17am 6.6 -3.6 3.2 79 1.4 WSW 46 56 25 30 1009.6 1009.7 20.2
01/01:00am 7.5 1.2 3.6 76 1.7 SW 26 37 14 20 1008.9 1009.0 19.4
01/12:30am 8.2 1.0 3.1 70 2.2 WSW 30 44 16 24 1008.6 1008.7 19.4
01/12:25am 8.1 1.3 3.0 70 2.2 WSW 28 44 15 24 1008.4 1008.5 19.4
01/12:00am 7.0 2.7 3.1 76 1.6 SSW 15 26 8 14 1007.8 1007.9 19.4
 
Date/Time
EST
Temp
°C
App
Temp
°C
Dew
Point
Rel
Hum
%
Delta-T
°C
Wind Press
QNH
hPa
Press
MSL
hPa
Rain
since 9 am
mm
Dir
 
Spd
km/h
Gust
km/h
Spd
kts
Gust
kts
30/11:30pm 7.6 -0.1 2.5 70 2.1 WSW 32 41 17 22 1007.1 1007.2 19.4
30/11:01pm 6.8 -1.0 3.1 77 1.6 SSW 33 52 18 28 1006.9 1007.0 19.4
30/11:00pm 6.9 -1.2 3.2 77 1.6 SSW 35 52 19 28 1006.9 1007.0 19.4
30/10:55pm 7.2 -1.3 3.1 75 1.7 SW 37 50 20 27 1006.8 1006.9 19.4
30/10:49pm 7.8 0.1 3.3 73 1.9 WSW 33 52 18 28 1006.5 1006.6 19.4
30/10:30pm 8.1 0.8 4.7 79 1.5 WSW 32 43 17 23 1006.0 1006.1 19.4
30/10:24pm 7.6 0.7 2.5 70 2.1 WSW 28 43 15 23 1006.0 1006.1 19.4
30/10:00pm 6.3 1.7 3.8 84 1.1 SW 17 24 9 13 1005.8 1005.9 19.4
30/09:54pm 6.3 1.2 4.0 85 1.0 SW 20 37 11 20 1005.8 1005.9 19.4
30/09:39pm 6.0 -1.7 3.2 82 1.2 WSW 33 46 18 25 1005.7 1005.8 19.4
30/09:37pm 5.9 -2.3 2.9 81 1.2 WSW 35 46 19 25 1005.7 1005.8 19.4
30/09:30pm 6.6 1.9 3.0 78 1.5 WSW 17 24 9 13 1005.3 1005.3 18.6
30/09:24pm 6.5 1.5 1.6 71 2.0 WSW 17 24 9 13 1005.0 1005.0 18.6
30/09:06pm 5.5 -4.3 2.2 79 1.3 WSW 43 56 23 30 1005.0 1005.0 18.4
30/09:04pm 6.1 -3.7 2.2 76 1.6 WSW 43 54 23 29 1005.0 1005.0 18.2
30/09:00pm 6.1 2.5 0.4 67 2.2 SSW 9 13 5 7 1004.7 1004.7 18.2
30/08:30pm 6.2 0.6 0.1 65 2.4 SW 19 28 10 15 1004.7 1004.7 18.2
30/08:00pm 6.5 -0.5 -0.2 62 2.6 WSW 26 37 14 20 1004.1 1004.1 18.2
30/07:30pm 6.4 -0.4 0.9 68 2.2 WSW 26 41 14 22 1003.5 1003.5 18.2
30/07:00pm 6.5 -1.5 0.6 66 2.3 SW 32 44 17 24 1002.6 1002.6 18.2
30/06:30pm 6.9 -0.9 1.6 69 2.1 WSW 32 48 17 26 1001.7 1001.7 18.0
30/06:17pm 6.8 -0.2 1.7 70 2.1 WSW 28 46 15 25 1001.4 1001.4 18.0
30/06:00pm 6.7 1.0 2.8 76 1.6 WSW 22 37 12 20 1001.2 1001.2 18.0
30/05:30pm 7.4 0.7 3.6 77 1.6 WSW 28 35 15 19 1001.0 1001.0 18.0
30/05:00pm 6.1 0.1 3.1 81 1.3 WSW 24 33 13 18 1000.5 1000.5 18.0
30/04:30pm 5.9 -0.1 3.4 84 1.0 WSW 24 35 13 19 999.7 999.7 17.6
30/04:14pm 5.7 -2.4 3.4 85 1.0 WSW 35 54 19 29 998.9 998.9 17.6
30/04:05pm 6.0 -1.5 4.5 90 0.6 WSW 33 52 18 28 998.8 998.8 17.6
30/04:00pm 6.1 -1.8 4.6 90 0.7 WSW 35 52 19 28 998.8 998.8 17.4
30/03:39pm 6.7 -0.6 5.5 92 0.5 W 33 54 18 29 998.0 998.0 16.8
30/03:37pm 6.8 -0.5 5.4 91 0.6 W 33 46 18 25 998.0 998.0 16.8
30/03:30pm 6.6 -0.2 5.1 90 0.7 W 30 43 16 23 997.7 997.7 16.4
30/03:13pm 6.6 -1.5 5.1 90 0.7 W 37 50 20 27 997.1 997.1 16.2
30/03:00pm 6.7 -0.9 5.7 93 0.4 W 35 48 19 26 996.8 996.8 16.0
30/02:48pm 6.9 -0.1 6.0 94 0.4 WSW 32 50 17 27 996.5 996.5 15.8
30/02:38pm 6.7 -1.4 5.2 90 0.7 W 37 48 20 26 996.6 996.6 15.2
30/02:37pm 6.9 -1.2 5.2 89 0.7 W 37 48 20 26 996.5 996.5 15.2
30/02:32pm 8.1 0.9 5.7 85 1.1 WNW 33 56 18 30 996.4 996.4 15.0
30/02:30pm 8.1 1.0 5.6 84 1.1 WNW 32 44 17 24 996.2 996.2 15.0
30/02:15pm 8.3 3.6 7.9 97 0.2 W 22 32 12 17 996.1 996.1 15.0
30/02:12pm 8.3 4.0 7.9 97 0.2 W 20 32 11 17 996.1 996.1 15.0
30/02:00pm 8.4 3.4 8.0 97 0.2 WNW 24 33 13 18 996.1 996.1 15.0
30/01:33pm 8.4 4.7 8.0 97 0.2 NNW 17 22 9 12 995.8 995.8 13.8
30/01:30pm 8.3 4.6 7.9 97 0.2 NNW 17 22 9 12 995.9 995.9 13.6
30/01:27pm 8.4 4.7 8.0 97 0.2 NNW 17 24 9 13 995.9 995.9 13.6
30/01:18pm 8.3 5.0 7.9 97 0.2 NW 15 19 8 10 996.1 996.1 13.6
30/01:07pm 8.1 4.3 7.7 97 0.2 NNW 17 24 9 13 996.0 996.0 13.6
30/01:00pm 8.0 3.8 7.6 97 0.2 NNW 19 24 10 13 996.1 996.1 13.4
30/12:50pm 8.1 4.3 7.7 97 0.2 NNW 17 22 9 12 996.3 996.3 13.4
30/12:30pm 7.7 3.3 7.3 97 0.2 NW 20 30 11 16 996.8 996.8 12.2
30/12:24pm 7.5 2.6 6.9 96 0.3 WNW 22 33 12 18 996.8 996.8 11.8
30/12:14pm 7.7 2.9 7.3 97 0.2 WNW 22 30 12 16 996.9 996.9 11.4
30/12:13pm 7.7 2.9 7.3 97 0.2 WNW 22 30 12 16 996.9 996.9 11.0
30/12:03pm 7.9 3.7 7.5 97 0.2 WNW 19 24 10 13 996.8 996.8 10.4
30/12:00pm 7.7 3.5 7.3 97 0.2 WNW 19 22 10 12 996.9 996.9 10.0
30/11:35am 7.4 5.0 6.8 96 0.3 NNW 9 13 5 7 996.5 996.5 8.0
30/11:30am 7.4 3.1 6.8 96 0.3 WNW 19 32 10 17 996.7 996.7 7.4
30/11:00am 7.5 2.3 7.1 97 0.2 WSW 24 33 13 18 997.2 997.2 4.6
30/10:41am 8.0 3.5 7.1 94 0.4 WSW 20 30 11 16 996.6 996.6 1.4
30/10:30am 8.5 4.7 7.6 94 0.4 W 17 22 9 12 996.9 996.9 1.2
30/10:03am 8.5 4.1 7.6 94 0.4 W 20 24 11 13 997.5 997.5 1.2
30/10:00am 8.6 4.4 7.5 93 0.5 WSW 19 24 10 13 997.4 997.4 1.2
30/09:53am 8.8 2.2 7.7 93 0.5 W 32 41 17 22 997.6 997.6 1.2
30/09:34am 10.5 3.1 10.0 97 0.3 NNW 39 57 21 31 997.8 997.8 1.0
30/09:30am 10.4 2.6 9.9 97 0.3 NNW 41 57 22 31 997.8 997.8 1.0
30/09:00am 10.4 2.6 9.9 97 0.3 NNW 41 59 22 32 997.5 997.5 8.2
30/08:43am 10.1 3.0 9.6 97 0.3 N 37 57 20 31 997.7 997.7 7.2
30/08:41am 10.0 3.3 9.5 97 0.2 N 35 57 19 31 997.7 997.7 7.0
30/08:30am 9.7 2.9 9.2 97 0.2 N 35 52 19 28 997.9 997.9 6.8
30/08:27am 9.7 2.9 9.2 97 0.2 N 35 52 19 28 998.1 998.1 6.4
30/08:15am 9.7 3.8 9.2 97 0.2 N 30 52 16 28 998.4 998.4 5.2
30/08:00am 9.4 3.4 8.8 96 0.3 N 30 44 16 24 998.4 998.4 4.0
30/07:30am 9.7 3.5 8.0 89 0.8 N 30 44 16 24 998.5 998.5 2.4
30/07:23am 10.0 3.4 7.8 86 1.1 N 32 48 17 26 998.6 998.6 1.6
30/07:00am 11.1 4.0 6.5 73 2.2 N 33 54 18 29 998.8 998.8 1.0
30/06:31am 11.0 3.5 6.2 72 2.2 N 35 56 19 30 999.4 999.4 1.0
30/06:30am 11.0 3.9 6.2 72 2.2 N 33 50 18 27 999.4 999.4 1.0
30/06:00am 10.7 3.2 6.3 74 2.1 N 35 52 19 28 999.6 999.6 1.0
30/05:45am 10.6 3.5 6.2 74 2.1 N 33 56 18 30 999.8 999.8 1.0
30/05:30am 10.5 3.0 6.1 74 2.0 N 35 50 19 27 1000.1 1000.1 1.0
30/05:22am 10.5 3.3 6.1 74 2.0 N 33 52 18 28 1000.2 1000.2 1.0
30/05:00am 10.6 3.0 6.0 73 2.1 N 35 48 19 26 1000.3 1000.3 1.0
30/04:30am 10.4 3.8 6.2 75 2.0 N 30 48 16 26 1000.8 1000.8 1.0
30/04:28am 10.4 3.8 6.2 75 2.0 N 30 48 16 26 1000.8 1000.8 1.0
30/04:00am 10.4 3.3 6.2 75 2.0 N 33 44 18 24 1001.5 1001.5 1.0
30/03:44am 10.3 3.7 6.1 75 1.9 N 30 48 16 26 1001.7 1001.7 1.0
30/03:30am 10.4 3.4 6.0 74 2.0 N 32 44 17 24 1002.0 1002.0 1.0
30/03:00am 10.2 3.6 6.0 75 2.0 N 30 43 16 23 1002.4 1002.4 1.0
30/02:30am 10.1 3.9 6.1 76 1.9 N 28 41 15 22 1002.7 1002.7 1.0
30/02:00am 10.1 3.9 6.3 77 1.8 N 28 37 15 20 1003.5 1003.5 1.0
30/01:30am 10.4 2.9 6.2 75 2.0 N 35 46 19 25 1004.2 1004.2 1.0
30/01:00am 9.9 2.9 6.1 77 1.8 N 32 41 17 22 1004.6 1004.6 1.0
30/12:30am 10.1 3.1 6.8 80 1.6 N 33 48 18 26 1005.1 1005.1 1.0
30/12:06am 9.7 3.6 6.8 82 1.4 N 28 46 15 25 1005.4 1005.4 1.0
30/12:00am 9.5 3.4 6.8 83 1.3 N 28 41 15 22 1005.4 1005.4 1.0
 
Date/Time
EST
Temp
°C
App
Temp
°C
Dew
Point
Rel
Hum
%
Delta-T
°C
Wind Press
QNH
hPa
Press
MSL
hPa
Rain
since 9 am
mm
Dir
 
Spd
km/h
Gust
km/h
Spd
kts
Gust
kts
29/11:42pm 9.4 2.7 7.3 87 1.0 N 32 50 17 27 1005.6 1005.7 1.0
29/11:30pm 9.3 3.4 7.4 88 0.9 N 28 39 15 21 1005.8 1005.9 1.0
29/11:00pm 9.6 3.1 8.8 95 0.4 NW 33 48 18 26 1006.3 1006.4 1.0
29/10:49pm 9.4 2.8 8.6 95 0.4 NW 33 44 18 24 1006.4 1006.5 1.0
29/10:31pm 9.7 2.6 8.0 89 0.8 NNW 35 59 19 32 1006.8 1006.9 1.0
29/10:30pm 10.3 3.7 8.6 89 0.8 NNW 33 48 18 26 1006.8 1006.9 1.0
29/10:12pm 10.1 5.3 8.7 91 0.7 N 24 35 13 19 1006.4 1006.5 1.0
29/10:00pm 9.9 5.0 8.3 90 0.8 NNW 24 37 13 20 1006.5 1006.6 1.0
29/09:54pm 9.7 3.9 8.0 89 0.8 NNW 28 37 15 20 1006.7 1006.8 1.0
29/09:31pm 9.8 4.0 7.9 88 0.9 NNW 28 50 15 27 1006.6 1006.7 0.8
29/09:30pm 9.7 4.3 8.0 89 0.8 NNW 26 50 14 27 1006.7 1006.8 0.8
29/09:18pm 9.7 4.8 8.5 92 0.6 N 24 32 13 17 1006.7 1006.8 0.8
29/09:00pm 9.4 3.3 8.2 92 0.6 N 30 39 16 21 1006.8 1006.9 0.8
29/08:57pm 9.4 2.9 8.2 92 0.6 N 32 43 17 23 1006.9 1007.0 0.8
29/08:38pm 9.6 3.8 7.9 89 0.8 N 28 46 15 25 1006.8 1006.9 0.8
29/08:35pm 9.6 3.7 7.7 88 0.9 N 28 37 15 20 1006.7 1006.8 0.4
29/08:30pm 9.6 3.7 7.7 88 0.9 N 28 39 15 21 1006.7 1006.8 0.4
29/08:26pm 9.5 3.2 7.6 88 0.9 N 30 43 16 23 1006.8 1006.9 0.4
29/08:15pm 9.4 2.8 7.7 89 0.8 N 32 50 17 27 1006.8 1006.9 0.4
29/08:00pm 9.8 3.4 6.9 82 1.4 N 30 44 16 24 1006.8 1006.9 0.4
29/07:30pm 10.4 2.9 6.4 76 1.9 N 35 48 19 26 1006.7 1006.8 0.4
29/07:00pm 10.1 3.1 6.8 80 1.6 N 33 57 18 31 1006.3 1006.4 0.4
29/06:56pm 10.1 3.6 6.6 79 1.6 N 30 57 16 31 1006.4 1006.5 0.4
29/06:41pm 9.8 3.1 7.2 84 1.2 N 32 41 17 22 1006.4 1006.5 0.4
29/06:30pm 9.7 1.7 7.3 85 1.1 NNW 39 61 21 33 1006.3 1006.4 0.4
29/06:23pm 10.1 1.7 7.3 83 1.3 NNW 41 61 22 33 1006.3 1006.4 0.2
29/06:00pm 11.0 3.1 6.0 71 2.3 NNW 37 56 20 30 1006.1 1006.2 0.2
29/05:52pm 11.1 3.5 6.0 71 2.4 NNW 35 54 19 29 1006.2 1006.3 0.2
29/05:30pm 11.6 3.7 6.1 69 2.6 NNW 37 54 20 29 1006.3 1006.4 0.2
29/05:06pm 11.2 2.7 5.1 66 2.8 NNW 39 59 21 32 1006.2 1006.3 0.2
29/05:00pm 11.1 3.1 5.8 70 2.5 NNW 37 54 20 29 1006.2 1006.3 0.2
29/04:30pm 10.6 2.6 7.3 80 1.6 NNW 39 52 21 28 1006.4 1006.5 0.2
29/04:25pm 10.0 1.8 6.7 80 1.5 NNW 39 52 21 28 1006.5 1006.6 0.2
29/04:07pm 9.6 -1.4 6.7 82 1.4 NNW 54 74 29 40 1006.6 1006.7 0.2
29/04:00pm 11.4 2.0 4.4 62 3.2 NNW 43 65 23 35 1006.1 1006.2 0.2
29/03:30pm 12.4 4.0 5.6 63 3.2 NNW 39 61 21 33 1006.0 1006.1 0.2
29/03:25pm 12.8 5.0 6.6 66 3.0 NNW 37 61 20 33 1005.9 1006.0 0.2
29/03:00pm 12.1 3.2 6.8 70 2.5 NNW 43 57 23 31 1006.3 1006.4 0.2
29/02:33pm 13.8 5.0 7.3 65 3.2 NNW 43 63 23 34 1006.3 1006.4 0.2
29/02:30pm 13.3 4.5 7.1 66 3.0 NNW 43 59 23 32 1006.3 1006.4 0.2
29/02:04pm 12.9 4.8 6.9 67 2.9 NNW 39 57 21 31 1006.8 1006.9 0.2
29/02:00pm 12.4 3.8 6.7 68 2.7 NNW 41 57 22 31 1006.8 1006.9 0.2
29/01:38pm 11.7 3.4 6.2 69 2.6 NW 39 69 21 37 1007.0 1007.1 0.2
29/01:30pm 10.6 1.9 6.2 74 2.1 NW 41 54 22 29 1007.1 1007.2 0.2
29/01:16pm 12.0 4.0 5.9 66 2.9 NNW 37 57 20 31 1007.0 1007.1 0.2
29/01:00pm 12.8 5.4 6.6 66 3.0 NNW 35 46 19 25 1007.1 1007.2 0.2
29/12:37pm 10.4 1.8 8.2 86 1.1 NNW 43 61 23 33 1007.4 1007.5 0.2
29/12:30pm 10.2 1.2 7.3 82 1.4 NNW 44 61 24 33 1007.3 1007.4 0.2
29/12:26pm 11.7 3.2 5.3 65 2.9 NNW 39 57 21 31 1007.2 1007.3 0.2
29/12:00pm 13.4 5.1 6.0 61 3.5 NNW 39 52 21 28 1007.1 1007.2 0.2
29/11:30am 13.2 5.1 5.4 59 3.6 NW 37 50 20 27 1007.3 1007.4 0.2
29/11:17am 12.8 5.0 5.0 59 3.6 NNW 35 54 19 29 1007.2 1007.3 0.2
29/11:00am 12.8 5.1 5.2 60 3.5 NW 35 44 19 24 1007.2 1007.3 0.0
29/10:30am 12.8 5.1 5.2 60 3.5 NNW 35 46 19 25 1007.1 1007.2 0.0
29/10:00am 12.4 6.1 5.6 63 3.2 NW 28 43 15 23 1006.9 1007.0 0.0
29/09:30am 10.7 3.8 4.6 66 2.7 NW 30 39 16 21 1007.1 1007.2 0.0
29/09:00am 11.2 3.1 3.0 57 3.6 NW 35 44 19 24 1007.0 1007.1 8.6
29/08:34am 10.1 2.9 3.2 62 3.0 NW 30 52 16 28 1006.6 1006.7 8.6
29/08:30am 10.2 3.6 6.0 75 1.9 NW 30 43 16 23 1006.6 1006.7 8.6

Other Formats:

Comma delimited format used in spreadsheet applications
http://www.bom.gov.au/fwo/IDT60801/IDT60801.94956.axf

JavaScript Object Notation format (JSON) in row-major order
http://www.bom.gov.au/fwo/IDT60801/IDT60801.94956.json